Time;durP1;ratioP1;P1;durP2;ratioP2;P2;SDS_P1;SDS_P2;PMS_P1;PMS_P2;Temp;Humidity;BMP_temperature;BMP_pressure;BME280_temperature;BME280_humidity;BME280_pressure;Samples;Min_cycle;Max_cycle;Signal;HPM_P1;HPM_P2
2023/08/31 00:02:18;;;;;;;12.48;3.72;;;12.60;99.90;;;;;;5064258;28;20033;-56
2023/08/31 00:04:44;;;;;;;11.40;3.92;;;12.60;99.90;;;;;;5078737;28;20056;-56
2023/08/31 00:07:09;;;;;;;8.13;3.55;;;12.60;99.90;;;;;;5065130;28;20124;-56
2023/08/31 00:09:36;;;;;;;8.50;4.00;;;12.60;99.90;;;;;;5077979;28;20049;-55
2023/08/31 00:12:03;;;;;;;11.50;3.90;;;12.60;99.90;;;;;;5066232;28;20051;-56
2023/08/31 00:14:28;;;;;;;10.00;3.65;;;12.60;99.90;;;;;;5060320;28;20053;-56
2023/08/31 00:16:57;;;;;;;10.60;3.63;;;12.60;99.90;;;;;;5068867;28;20098;-55
2023/08/31 00:19:23;;;;;;;10.82;3.42;;;12.60;99.90;;;;;;5068441;28;20044;-56
2023/08/31 00:21:48;;;;;;;7.38;3.38;;;12.60;99.90;;;;;;5070160;28;20041;-57
2023/08/31 00:24:14;;;;;;;9.63;3.40;;;12.60;99.90;;;;;;5058185;28;20393;-56
2023/08/31 00:26:43;;;;;;;7.20;2.45;;;12.60;99.90;;;;;;5062308;28;20048;-56
2023/08/31 00:29:14;;;;;;;13.55;3.13;;;12.60;99.90;;;;;;5058343;28;20052;-56
2023/08/31 00:31:39;;;;;;;8.75;2.67;;;12.60;99.90;;;;;;5057763;28;20062;-56
2023/08/31 00:34:06;;;;;;;4.72;2.53;;;12.50;99.90;;;;;;5059159;28;20068;-56
2023/08/31 00:36:33;;;;;;;6.82;2.50;;;12.50;99.90;;;;;;5062069;28;20073;-56
2023/08/31 00:39:06;;;;;;;6.45;1.88;;;12.50;99.90;;;;;;5063112;28;20041;-56
2023/08/31 00:41:32;;;;;;;2.42;1.25;;;12.50;99.90;;;;;;5069082;28;20033;-55
2023/08/31 00:43:58;;;;;;;4.63;1.27;;;12.50;99.90;;;;;;5077468;28;20052;-56
2023/08/31 00:46:27;;;;;;;6.10;1.30;;;12.50;99.90;;;;;;5062260;28;20060;-55
2023/08/31 00:48:54;;;;;;;2.53;1.00;;;12.50;99.90;;;;;;5062081;28;20094;-57
2023/08/31 00:51:20;;;;;;;6.05;1.23;;;12.50;99.90;;;;;;5082998;28;20055;-56
2023/08/31 00:53:46;;;;;;;3.45;1.30;;;12.40;99.90;;;;;;5079166;28;20045;-56
2023/08/31 00:56:13;;;;;;;3.90;1.10;;;12.40;99.90;;;;;;5082271;28;20043;-56
2023/08/31 00:58:40;;;;;;;3.95;1.27;;;12.40;99.90;;;;;;5079979;28;20468;-56
2023/08/31 01:01:22;;;;;;;5.07;1.52;;;12.40;99.90;;;;;;5076521;28;20057;-56
2023/08/31 01:03:48;;;;;;;4.47;2.50;;;12.40;99.90;;;;;;5069875;28;20033;-55
2023/08/31 01:06:53;;;;;;;7.30;2.90;;;12.30;99.90;;;;;;5061405;28;20045;-56
2023/08/31 01:09:37;;;;;;;7.85;3.35;;;12.40;99.90;;;;;;5064522;28;20554;-56
2023/08/31 01:12:34;;;;;;;9.70;3.63;;;12.30;99.90;;;;;;5083021;28;20115;-56
2023/08/31 01:15:04;;;;;;;;;;;12.40;99.90;;;;;;5076968;28;20040;-56
2023/08/31 01:17:31;;;;;;;7.40;3.83;;;12.40;99.90;;;;;;5080839;28;19924;-56
2023/08/31 01:19:59;;;;;;;8.63;4.07;;;13.00;99.90;;;;;;5060661;28;20175;-56
2023/08/31 01:22:37;;;;;;;8.48;3.75;;;12.30;99.90;;;;;;5079943;28;20036;-56
2023/08/31 01:25:04;;;;;;;8.63;3.90;;;12.40;99.90;;;;;;5081835;28;20045;-56
2023/08/31 01:27:31;;;;;;;6.78;3.58;;;12.30;99.90;;;;;;5082385;28;20121;-55
2023/08/31 01:29:58;;;;;;;9.00;3.35;;;12.30;99.90;;;;;;5073716;28;20049;-56
2023/08/31 01:32:24;;;;;;;6.05;3.50;;;12.30;99.90;;;;;;5061499;28;20120;-56
2023/08/31 01:34:53;;;;;;;5.70;2.72;;;12.30;99.90;;;;;;5062122;28;20131;-56
2023/08/31 01:37:31;;;;;;;5.90;2.47;;;12.30;99.90;;;;;;5066857;28;20048;-56
2023/08/31 01:40:02;;;;;;;8.25;2.70;;;12.20;99.90;;;;;;5077823;28;20059;-55
2023/08/31 01:42:28;;;;;;;5.65;2.40;;;12.20;99.90;;;;;;5080206;28;20052;-55
2023/08/31 01:44:57;;;;;;;3.97;2.20;;;12.20;99.90;;;;;;5078515;28;20083;-57
2023/08/31 01:47:23;;;;;;;4.90;2.05;;;12.10;99.90;;;;;;5054590;28;20064;-55
2023/08/31 01:49:50;;;;;;;3.55;2.08;;;12.10;99.90;;;;;;5052597;28;20120;-56
2023/08/31 01:52:16;;;;;;;3.97;2.00;;;12.10;99.90;;;;;;5055393;28;20037;-56
2023/08/31 01:54:41;;;;;;;7.05;1.90;;;12.10;99.90;;;;;;5054147;28;21712;-56
2023/08/31 01:57:07;;;;;;;4.43;2.10;;;12.10;99.90;;;;;;5056025;28;20551;-56
2023/08/31 01:59:34;;;;;;;5.82;1.80;;;12.00;99.90;;;;;;5053526;28;20064;-56
2023/08/31 02:02:00;;;;;;;3.50;1.92;;;12.00;99.90;;;;;;5053997;28;20569;-56
2023/08/31 02:04:26;;;;;;;4.07;1.77;;;11.90;99.90;;;;;;5060398;28;20092;-56
2023/08/31 02:06:52;;;;;;;4.55;1.80;;;11.90;99.90;;;;;;5055793;28;20037;-56
2023/08/31 02:09:17;;;;;;;3.65;1.50;;;11.90;99.90;;;;;;5053187;28;20500;-56
2023/08/31 02:11:43;;;;;;;5.13;1.60;;;11.90;99.90;;;;;;5053871;28;20137;-56
2023/08/31 02:14:08;;;;;;;2.22;1.30;;;11.90;99.90;;;;;;5057865;28;20056;-56
2023/08/31 02:16:35;;;;;;;3.03;1.45;;;11.80;99.90;;;;;;5068491;28;20051;-56
2023/08/31 02:19:00;;;;;;;2.50;1.30;;;11.80;99.90;;;;;;5070872;28;20029;-56
2023/08/31 02:21:26;;;;;;;2.97;1.20;;;11.80;99.90;;;;;;5070735;28;20074;-56
2023/08/31 02:23:52;;;;;;;1.98;1.00;;;11.70;99.90;;;;;;5080055;28;20047;-57
2023/08/31 02:26:17;;;;;;;2.47;1.02;;;11.70;99.90;;;;;;5080088;28;20037;-56
2023/08/31 02:28:43;;;;;;;2.95;1.25;;;11.70;99.90;;;;;;5075883;28;20066;-56
2023/08/31 02:31:11;;;;;;;2.25;1.30;;;11.60;99.90;;;;;;5075090;28;20044;-56
2023/08/31 02:33:37;;;;;;;4.78;1.35;;;11.60;99.90;;;;;;5080946;28;20076;-56
2023/08/31 02:36:03;;;;;;;1.85;1.42;;;11.60;99.90;;;;;;5069032;28;20041;-57
2023/08/31 02:38:28;;;;;;;2.80;1.77;;;11.60;99.90;;;;;;5078362;28;20036;-57
2023/08/31 02:40:54;;;;;;;3.55;2.10;;;11.60;99.90;;;;;;5070705;28;20041;-55
2023/08/31 02:43:20;;;;;;;4.32;2.30;;;11.60;99.90;;;;;;5079264;28;20063;-57
2023/08/31 02:45:45;;;;;;;3.25;2.28;;;11.60;99.90;;;;;;5078154;28;20037;-56
2023/08/31 02:48:13;;;;;;;4.63;2.70;;;11.60;99.90;;;;;;5079769;28;20128;-56
2023/08/31 02:50:39;;;;;;;6.22;2.78;;;11.60;99.90;;;;;;5076173;28;20062;-56
2023/08/31 02:53:05;;;;;;;6.03;3.10;;;11.60;99.90;;;;;;5074116;28;20049;-56
2023/08/31 02:55:33;;;;;;;3.63;3.22;;;11.60;99.90;;;;;;5070528;28;20123;-56
2023/08/31 02:57:59;;;;;;;8.02;4.05;;;11.60;99.90;;;;;;5077867;28;20067;-56
2023/08/31 03:00:24;;;;;;;5.30;4.00;;;11.60;99.90;;;;;;5075264;28;20037;-55
2023/08/31 03:02:53;;;;;;;6.93;4.80;;;11.70;99.90;;;;;;5064341;28;20098;-56
2023/08/31 03:05:21;;;;;;;5.95;4.53;;;11.60;99.90;;;;;;5060724;28;20044;-56
2023/08/31 03:07:47;;;;;;;6.15;4.70;;;11.60;99.90;;;;;;5071554;28;20047;-55
2023/08/31 03:10:13;;;;;;;6.03;4.72;;;11.60;99.90;;;;;;5062349;28;20041;-56
2023/08/31 03:12:38;;;;;;;6.82;5.00;;;11.70;99.90;;;;;;5080265;28;20040;-57
2023/08/31 03:15:06;;;;;;;5.97;5.32;;;11.70;99.90;;;;;;5077861;28;20063;-56
2023/08/31 03:17:31;;;;;;;9.57;5.50;;;11.60;99.90;;;;;;5070110;28;20043;-56
2023/08/31 03:19:57;;;;;;;6.93;5.90;;;11.60;99.90;;;;;;5074346;28;20052;-56
2023/08/31 03:22:23;;;;;;;9.00;5.25;;;11.60;99.90;;;;;;5060642;28;20405;-56
2023/08/31 03:24:48;;;;;;;7.30;5.63;;;11.60;99.90;;;;;;5059065;28;20095;-56
2023/08/31 03:27:15;;;;;;;7.70;5.15;;;11.60;99.90;;;;;;5060420;28;20135;-56
2023/08/31 03:29:41;;;;;;;7.63;4.97;;;11.60;99.90;;;;;;5061733;28;20037;-56
2023/08/31 03:32:07;;;;;;;6.82;5.00;;;11.60;99.90;;;;;;5079614;28;20387;-56
2023/08/31 03:34:33;;;;;;;8.32;4.85;;;11.60;99.90;;;;;;5066362;28;20135;-56
2023/08/31 03:36:59;;;;;;;9.52;5.07;;;11.60;99.90;;;;;;5058863;28;20549;-56
2023/08/31 03:39:25;;;;;;;8.30;4.93;;;11.60;99.90;;;;;;5059923;28;20052;-56
2023/08/31 03:41:51;;;;;;;7.25;4.55;;;11.60;99.90;;;;;;5064754;28;20055;-56
2023/08/31 03:44:17;;;;;;;7.68;4.15;;;11.60;99.90;;;;;;5078928;28;20044;-56
2023/08/31 03:46:43;;;;;;;5.45;4.22;;;11.60;99.90;;;;;;5079535;28;20044;-56
2023/08/31 03:49:09;;;;;;;7.57;3.70;;;11.60;99.90;;;;;;5065559;28;20044;-56
2023/08/31 03:51:34;;;;;;;7.72;3.72;;;11.60;99.90;;;;;;5068965;28;20040;-57
2023/08/31 03:54:00;;;;;;;6.80;3.60;;;11.60;99.90;;;;;;5060041;28;20044;-56
2023/08/31 03:56:26;;;;;;;5.13;3.22;;;11.60;99.90;;;;;;5060003;28;20098;-56
2023/08/31 03:58:53;;;;;;;3.97;3.22;;;11.60;99.90;;;;;;5060045;28;20041;-56
2023/08/31 04:01:18;;;;;;;5.13;2.95;;;11.60;99.90;;;;;;5064529;28;20110;-55
2023/08/31 04:03:44;;;;;;;4.50;3.15;;;11.60;99.90;;;;;;5063176;28;20037;-56
2023/08/31 04:06:10;;;;;;;6.75;3.63;;;11.70;99.90;;;;;;5075133;28;20029;-56
2023/08/31 04:08:36;;;;;;;6.55;3.05;;;11.60;99.90;;;;;;5074506;28;20097;-57
2023/08/31 04:11:03;;;;;;;5.45;2.90;;;11.70;99.90;;;;;;5068071;28;20064;-55
2023/08/31 04:13:29;;;;;;;4.53;2.85;;;11.70;99.90;;;;;;5084069;28;20037;-56
2023/08/31 04:15:54;;;;;;;6.38;2.95;;;11.70;99.90;;;;;;5082285;28;20177;-56
2023/08/31 04:18:21;;;;;;;7.25;3.17;;;11.70;99.90;;;;;;5083630;28;20087;-56
2023/08/31 04:20:52;;;;;;;4.55;3.38;;;11.70;99.90;;;;;;5082222;28;20127;-56
2023/08/31 04:23:19;;;;;;;7.85;3.45;;;11.70;99.90;;;;;;5067874;28;20041;-55
2023/08/31 04:25:47;;;;;;;7.20;3.67;;;11.70;99.90;;;;;;5071694;28;20048;-55
2023/08/31 04:28:13;;;;;;;7.20;3.78;;;11.60;99.90;;;;;;5064594;28;20092;-56
2023/08/31 04:30:39;;;;;;;8.40;3.63;;;11.70;99.90;;;;;;5063292;28;20044;-56
2023/08/31 04:33:07;;;;;;;8.50;4.18;;;11.70;99.90;;;;;;5070024;28;20047;-56
2023/08/31 04:35:33;;;;;;;7.53;4.03;;;11.60;99.90;;;;;;5063130;28;20033;-56
2023/08/31 04:37:58;;;;;;;8.15;4.40;;;11.60;99.90;;;;;;5062969;28;20051;-56
2023/08/31 04:40:24;;;;;;;6.65;4.18;;;11.70;99.90;;;;;;5061616;28;20069;-56
2023/08/31 04:42:50;;;;;;;7.75;4.80;;;11.60;99.90;;;;;;5070174;28;20098;-55
2023/08/31 04:45:16;;;;;;;8.20;4.88;;;11.60;99.90;;;;;;5073920;28;20086;-56
2023/08/31 04:47:42;;;;;;;10.75;5.45;;;11.60;99.90;;;;;;5072576;28;20115;-56
2023/08/31 04:50:08;;;;;;;10.50;5.55;;;11.60;99.90;;;;;;5074821;28;20049;-56
2023/08/31 04:52:34;;;;;;;7.70;5.32;;;11.60;99.90;;;;;;5075248;28;20040;-56
2023/08/31 04:55:03;;;;;;;6.95;5.82;;;11.60;99.90;;;;;;5070988;28;20048;-56
2023/08/31 04:57:29;;;;;;;7.65;5.57;;;11.60;99.90;;;;;;5066180;28;20037;-55
2023/08/31 04:59:55;;;;;;;7.90;5.60;;;11.60;99.90;;;;;;5072949;28;20067;-56
2023/08/31 05:02:20;;;;;;;7.40;5.93;;;11.70;99.90;;;;;;5065867;28;20505;-62
2023/08/31 05:04:46;;;;;;;9.25;6.13;;;11.70;99.90;;;;;;5077594;28;20048;-56
2023/08/31 05:07:12;;;;;;;10.95;6.00;;;11.70;99.90;;;;;;5076162;28;20093;-56
2023/08/31 05:09:38;;;;;;;7.03;6.10;;;11.70;99.90;;;;;;5062718;28;20087;-56
2023/08/31 05:12:04;;;;;;;11.23;6.22;;;11.70;99.90;;;;;;5064220;28;20094;-55
2023/08/31 05:14:29;;;;;;;7.60;6.43;;;11.70;99.90;;;;;;5064420;28;20080;-56
2023/08/31 05:16:55;;;;;;;8.88;6.05;;;11.80;99.90;;;;;;5074945;28;20051;-56
2023/08/31 05:19:21;;;;;;;10.20;5.82;;;11.80;99.90;;;;;;5081054;28;20254;-55
2023/08/31 05:21:47;;;;;;;10.50;6.15;;;11.80;99.90;;;;;;5078588;28;20109;-56
2023/08/31 05:24:13;;;;;;;8.80;6.30;;;11.80;99.90;;;;;;5079725;28;20033;-56
2023/08/31 05:26:39;;;;;;;11.30;7.05;;;11.80;99.90;;;;;;5080237;28;20037;-56
2023/08/31 05:29:05;;;;;;;9.05;6.15;;;11.80;99.90;;;;;;5079943;28;20079;-56
2023/08/31 05:31:31;;;;;;;8.88;6.07;;;11.90;99.90;;;;;;5079579;28;20037;-55
2023/08/31 05:33:57;;;;;;;10.43;6.30;;;11.90;99.90;;;;;;5064020;28;20044;-56
2023/08/31 05:36:23;;;;;;;8.52;6.00;;;12.00;99.90;;;;;;5081389;28;20064;-56
2023/08/31 05:38:51;;;;;;;9.43;5.32;;;12.00;99.90;;;;;;5080414;28;20052;-56
2023/08/31 05:41:16;;;;;;;10.10;5.55;;;12.00;99.90;;;;;;5080443;28;20048;-56
2023/08/31 05:43:42;;;;;;;12.15;6.22;;;12.10;99.90;;;;;;5080933;28;20513;-56
2023/08/31 05:46:08;;;;;;;8.10;5.55;;;12.10;99.90;;;;;;5079517;28;20100;-56
2023/08/31 05:48:36;;;;;;;9.02;5.60;;;12.10;99.90;;;;;;5079469;28;20033;-56
2023/08/31 05:51:03;;;;;;;6.90;5.30;;;12.20;99.90;;;;;;5074477;28;20049;-56
2023/08/31 05:53:30;;;;;;;7.60;5.60;;;12.20;99.90;;;;;;5069664;28;20055;-56
2023/08/31 05:56:03;;;;;;;9.35;5.72;;;12.30;99.90;;;;;;5066579;28;20029;-56
2023/08/31 05:58:32;;;;;;;7.13;5.80;;;12.30;99.90;;;;;;5066768;28;20520;-56
2023/08/31 06:00:59;;;;;;;9.02;5.95;;;12.40;99.90;;;;;;5065783;28;20037;-56
2023/08/31 06:03:25;;;;;;;9.45;5.88;;;12.40;99.90;;;;;;5060595;28;20063;-56
2023/08/31 06:05:51;;;;;;;10.45;5.60;;;12.40;99.90;;;;;;5075502;28;20040;-55
2023/08/31 06:08:16;;;;;;;12.30;5.68;;;12.50;99.90;;;;;;5078336;28;20140;-56
2023/08/31 06:10:42;;;;;;;8.27;5.93;;;12.50;99.90;;;;;;5071715;28;20048;-56
2023/08/31 06:13:07;;;;;;;13.60;5.38;;;12.50;99.90;;;;;;5064539;28;20124;-56
2023/08/31 06:15:33;;;;;;;10.73;5.35;;;12.60;99.90;;;;;;5059476;28;20055;-56
2023/08/31 06:17:59;;;;;;;8.30;5.00;;;12.60;99.90;;;;;;5077117;28;20049;-56
2023/08/31 06:20:24;;;;;;;10.90;4.78;;;12.60;99.90;;;;;;5065631;28;20551;-56
2023/08/31 06:22:50;;;;;;;8.52;4.60;;;12.70;99.90;;;;;;5067574;28;20048;-57
2023/08/31 06:25:18;;;;;;;8.95;4.53;;;12.70;99.90;;;;;;5075002;28;20040;-56
2023/08/31 06:27:44;;;;;;;10.35;4.57;;;12.70;99.90;;;;;;5066046;28;20158;-56
2023/08/31 06:30:15;;;;;;;9.45;4.28;;;12.70;99.90;;;;;;5069718;28;20048;-57
2023/08/31 06:32:44;;;;;;;10.80;4.22;;;12.70;99.90;;;;;;5076807;28;20108;-57
2023/08/31 06:35:10;;;;;;;10.43;3.38;;;12.80;99.90;;;;;;5065543;28;20061;-56
2023/08/31 06:37:36;;;;;;;5.97;3.50;;;12.80;99.90;;;;;;5060105;28;20041;-55
2023/08/31 06:40:02;;;;;;;8.38;3.30;;;12.90;99.90;;;;;;5062866;28;20041;-56
2023/08/31 06:42:27;;;;;;;8.15;3.20;;;13.10;99.90;;;;;;5060070;28;20041;-56
2023/08/31 06:44:55;;;;;;;5.20;3.08;;;13.10;99.90;;;;;;5060611;28;20041;-57
2023/08/31 06:47:21;;;;;;;8.38;2.83;;;13.10;99.90;;;;;;5072681;28;20037;-57
2023/08/31 06:49:47;;;;;;;8.45;2.60;;;13.20;99.90;;;;;;5058798;28;20051;-57
2023/08/31 06:52:12;;;;;;;8.70;2.65;;;13.20;99.90;;;;;;5065744;28;20439;-56
2023/08/31 06:54:38;;;;;;;9.38;2.80;;;13.30;99.90;;;;;;5061184;28;20167;-56
2023/08/31 06:57:04;;;;;;;5.63;2.70;;;13.30;99.90;;;;;;5070735;28;20044;-57
2023/08/31 06:59:30;;;;;;;4.72;2.50;;;13.40;99.90;;;;;;5076509;28;20048;-56
2023/08/31 07:01:55;;;;;;;5.82;2.45;;;13.50;99.90;;;;;;5076799;28;20040;-56
2023/08/31 07:04:21;;;;;;;4.97;2.17;;;13.70;99.90;;;;;;5074058;28;20041;-56
2023/08/31 07:06:47;;;;;;;4.97;2.42;;;13.90;99.90;;;;;;5072684;28;20080;-56
2023/08/31 07:09:12;;;;;;;6.50;2.03;;;14.10;99.90;;;;;;5060804;28;20041;-57
2023/08/31 07:11:39;;;;;;;3.53;1.60;;;14.20;99.90;;;;;;5075721;28;20103;-56
2023/08/31 07:14:05;;;;;;;4.82;1.63;;;14.40;99.90;;;;;;5080462;28;20055;-56
2023/08/31 07:16:31;;;;;;;4.70;1.80;;;14.70;99.90;;;;;;5078169;28;20060;-56
2023/08/31 07:18:56;;;;;;;4.22;1.65;;;14.80;99.90;;;;;;5068599;28;20049;-56
2023/08/31 07:21:22;;;;;;;5.38;1.35;;;14.90;99.90;;;;;;5063300;28;20504;-56
2023/08/31 07:23:48;;;;;;;4.30;1.58;;;15.10;99.90;;;;;;5066701;28;20094;-56
2023/08/31 07:26:15;;;;;;;9.20;1.30;;;15.30;99.90;;;;;;5077312;28;20041;-56
2023/08/31 07:28:41;;;;;;;8.27;1.20;;;15.60;99.90;;;;;;5071871;28;20059;-56
2023/08/31 07:31:07;;;;;;;7.38;1.13;;;15.80;99.90;;;;;;5065736;28;20044;-57
2023/08/31 07:33:35;;;;;;;3.30;1.20;;;16.00;99.90;;;;;;5058645;28;20135;-57
2023/08/31 07:36:02;;;;;;;5.47;1.13;;;16.10;99.90;;;;;;5061708;28;20064;-56
2023/08/31 07:38:28;;;;;;;3.75;1.10;;;16.20;99.90;;;;;;5067478;28;20040;-56
2023/08/31 07:40:54;;;;;;;4.25;1.40;;;16.30;99.90;;;;;;5063954;28;20033;-56
2023/08/31 07:43:20;;;;;;;6.70;1.23;;;16.40;99.90;;;;;;5059986;28;20044;-56
2023/08/31 07:45:45;;;;;;;3.92;1.08;;;16.50;99.90;;;;;;5066132;28;20128;-56
2023/08/31 07:48:11;;;;;;;2.42;0.95;;;16.70;99.90;;;;;;5075093;28;20044;-56
2023/08/31 07:50:37;;;;;;;3.20;0.75;;;16.80;99.90;;;;;;5065962;28;20041;-57
2023/08/31 07:53:03;;;;;;;7.78;1.25;;;16.70;99.90;;;;;;5075261;28;20051;-56
2023/08/31 07:55:29;;;;;;;4.93;1.10;;;16.60;99.90;;;;;;5079553;28;20045;-57
2023/08/31 07:57:54;;;;;;;2.05;0.90;;;16.40;99.90;;;;;;5078140;28;20103;-61
2023/08/31 08:00:20;;;;;;;3.40;1.00;;;16.20;99.90;;;;;;5079688;28;20060;-56
2023/08/31 08:02:46;;;;;;;1.60;0.73;;;16.10;99.90;;;;;;5077969;28;20158;-56
2023/08/31 08:05:12;;;;;;;6.05;1.10;;;16.00;99.90;;;;;;5080125;28;20044;-57
2023/08/31 08:07:37;;;;;;;1.73;0.80;;;15.90;99.90;;;;;;5061061;28;20029;-57
2023/08/31 08:10:03;;;;;;;3.17;1.20;;;15.80;99.90;;;;;;5060677;28;20045;-57
2023/08/31 08:12:38;;;;;;;5.07;1.00;;;15.80;99.90;;;;;;5070371;28;20048;-57
2023/08/31 08:15:04;;;;;;;5.50;1.30;;;15.70;99.90;;;;;;5067054;28;20044;-57
2023/08/31 08:17:30;;;;;;;3.83;1.13;;;15.70;99.90;;;;;;5062487;28;20411;-56
2023/08/31 08:19:55;;;;;;;5.63;1.00;;;15.70;99.90;;;;;;5064521;28;20082;-57
2023/08/31 08:22:21;;;;;;;3.72;0.75;;;15.80;99.90;;;;;;5079690;28;20037;-56
2023/08/31 08:24:46;;;;;;;3.88;1.02;;;15.80;99.90;;;;;;5078747;28;20137;-56
2023/08/31 08:27:12;;;;;;;2.63;1.08;;;15.90;99.90;;;;;;5075655;28;20154;-56
2023/08/31 08:29:38;;;;;;;3.65;1.20;;;15.90;99.90;;;;;;5079311;28;20124;-57
2023/08/31 08:32:05;;;;;;;4.35;1.25;;;16.00;99.90;;;;;;5066676;28;20037;-57
2023/08/31 08:34:31;;;;;;;2.00;0.70;;;16.00;99.90;;;;;;5058979;28;20114;-56
2023/08/31 08:36:57;;;;;;;3.67;1.10;;;16.00;99.90;;;;;;5061231;28;20055;-56
2023/08/31 08:39:22;;;;;;;4.45;1.50;;;16.10;99.90;;;;;;5061924;28;20128;-56
2023/08/31 08:41:48;;;;;;;4.47;1.20;;;16.00;99.90;;;;;;5069792;28;20094;-56
2023/08/31 08:44:17;;;;;;;4.18;1.20;;;16.00;99.90;;;;;;5078847;28;20080;-56
2023/08/31 08:46:43;;;;;;;5.15;1.50;;;16.00;99.90;;;;;;5065786;28;20059;-56
2023/08/31 08:49:10;;;;;;;5.03;1.60;;;16.00;99.90;;;;;;5057629;28;20052;-57
2023/08/31 08:51:36;;;;;;;4.72;1.55;;;16.00;99.90;;;;;;5067809;28;20035;-56
2023/08/31 08:54:03;;;;;;;8.95;1.42;;;16.00;99.90;;;;;;5069798;28;20057;-58
2023/08/31 08:56:28;;;;;;;3.63;1.40;;;16.00;99.90;;;;;;5066746;28;20056;-57
2023/08/31 08:58:54;;;;;;;4.40;1.30;;;16.10;99.90;;;;;;5079477;28;20033;-57
2023/08/31 09:01:22;;;;;;;4.72;1.50;;;16.10;99.90;;;;;;5083173;28;20079;-57
2023/08/31 09:03:49;;;;;;;7.47;1.63;;;16.10;99.90;;;;;;5082913;28;20040;-57
2023/08/31 09:06:15;;;;;;;5.57;1.40;;;16.10;99.90;;;;;;5072770;28;20037;-58
2023/08/31 09:08:41;;;;;;;5.22;1.73;;;16.10;99.90;;;;;;5069209;28;20104;-57
2023/08/31 09:11:07;;;;;;;6.57;1.63;;;16.10;99.90;;;;;;5065534;28;20049;-57
2023/08/31 09:13:33;;;;;;;6.60;1.50;;;16.10;99.90;;;;;;5064491;28;20067;-57
2023/08/31 09:15:59;;;;;;;5.63;1.60;;;16.10;99.90;;;;;;5078987;28;20500;-56
2023/08/31 09:18:27;;;;;;;7.50;2.03;;;16.10;99.90;;;;;;5061994;28;20049;-58
2023/08/31 09:20:54;;;;;;;3.47;1.60;;;16.50;99.90;;;;;;5062468;28;20037;-57
2023/08/31 09:23:20;;;;;;;5.10;1.65;;;16.10;99.90;;;;;;5060652;28;20104;-57
2023/08/31 09:25:48;;;;;;;3.60;1.50;;;16.10;99.90;;;;;;5062691;28;20041;-57
2023/08/31 09:28:15;;;;;;;4.18;1.35;;;16.10;99.90;;;;;;5068465;28;20040;-57
2023/08/31 09:30:41;;;;;;;8.55;1.50;;;16.20;99.90;;;;;;5062122;28;20049;-57
2023/08/31 09:33:16;;;;;;;5.65;1.60;;;16.20;99.90;;;;;;5065141;28;20379;-56
2023/08/31 09:35:49;;;;;;;8.80;1.50;;;16.30;99.90;;;;;;5060364;28;20048;-57
2023/08/31 09:38:16;;;;;;;5.00;1.50;;;16.40;99.90;;;;;;5079844;28;20062;-56
2023/08/31 09:40:42;;;;;;;2.97;1.20;;;16.40;99.90;;;;;;5079474;28;20768;-57
2023/08/31 09:43:07;;;;;;;4.90;1.42;;;16.40;99.90;;;;;;5080494;28;20098;-57
2023/08/31 09:45:34;;;;;;;5.25;1.45;;;16.50;99.90;;;;;;5078937;28;20559;-58
2023/08/31 09:48:02;;;;;;;3.17;1.10;;;16.60;99.90;;;;;;5067654;28;20065;-57
2023/08/31 09:50:32;;;;;;;3.35;1.30;;;16.70;99.90;;;;;;5071081;28;20043;-56
2023/08/31 09:53:03;;;;;;;3.65;1.40;;;16.70;99.90;;;;;;5078196;28;20044;-57
2023/08/31 09:55:31;;;;;;;4.53;1.38;;;16.70;99.90;;;;;;5078780;28;20044;-57
2023/08/31 09:58:00;;;;;;;4.82;1.27;;;16.70;99.90;;;;;;5074330;28;20062;-57
2023/08/31 10:00:28;;;;;;;5.53;1.15;;;16.60;99.90;;;;;;5061687;28;20045;-57
2023/08/31 10:03:03;;;;;;;6.05;1.65;;;16.60;99.90;;;;;;5060300;28;20060;-57
2023/08/31 10:05:30;;;;;;;5.15;1.55;;;16.50;99.90;;;;;;5061017;28;20266;-57
2023/08/31 10:07:58;;;;;;;4.45;1.05;;;16.40;99.90;;;;;;5060642;28;20105;-57
2023/08/31 10:10:24;;;;;;;4.82;1.02;;;16.20;99.90;;;;;;5074086;28;20051;-57
2023/08/31 10:12:51;;;;;;;6.65;1.10;;;16.10;99.90;;;;;;5064427;28;20123;-58
2023/08/31 10:15:18;;;;;;;7.80;1.52;;;16.00;99.90;;;;;;5059870;28;20045;-58
2023/08/31 10:17:44;;;;;;;4.65;1.50;;;15.90;99.90;;;;;;5061773;28;20045;-58
2023/08/31 10:20:13;;;;;;;4.78;1.40;;;16.00;99.90;;;;;;5072183;28;20052;-57
2023/08/31 10:22:39;;;;;;;5.90;1.73;;;16.10;99.90;;;;;;5068724;28;21016;-58
2023/08/31 10:25:06;;;;;;;6.00;1.45;;;16.20;99.90;;;;;;5067072;28;20057;-57
2023/08/31 10:27:42;;;;;;;7.45;1.90;;;16.30;99.90;;;;;;5074204;28;20552;-57
2023/08/31 10:30:25;;;;;;;5.80;1.20;;;16.40;99.90;;;;;;5076789;28;20036;-57
2023/08/31 10:33:09;;;;;;;8.38;1.40;;;16.50;99.90;;;;;;5059124;28;20037;-57
2023/08/31 10:36:08;;;;;;;3.88;1.10;;;16.50;99.90;;;;;;5060849;28;20047;-57
2023/08/31 10:38:34;;;;;;;4.90;1.17;;;16.70;99.90;;;;;;5056107;28;20052;-58
2023/08/31 10:41:19;;;;;;;8.35;1.38;;;16.80;99.90;;;;;;5074034;28;20044;-58
2023/08/31 10:43:59;;;;;;;7.57;1.30;;;16.90;99.90;;;;;;5070986;28;20048;-57
2023/08/31 10:46:34;;;;;;;7.80;1.48;;;17.10;99.90;;;;;;5080265;28;20051;-56
2023/08/31 10:49:11;;;;;;;3.75;1.30;;;17.10;99.90;;;;;;5074796;28;20045;-58
2023/08/31 10:51:43;;;;;;;4.05;1.15;;;17.30;99.90;;;;;;5060541;28;20044;-57
2023/08/31 10:54:26;;;;;;;7.75;1.52;;;17.40;99.90;;;;;;5059493;28;20041;-57
2023/08/31 10:56:54;;;;;;;5.90;1.20;;;17.60;99.90;;;;;;5061206;28;20525;-57
2023/08/31 10:59:24;;;;;;;7.53;1.75;;;17.70;99.90;;;;;;5068280;28;20045;-57
2023/08/31 11:02:02;;;;;;;7.10;1.38;;;17.70;99.90;;;;;;5063533;28;20103;-58
2023/08/31 11:04:29;;;;;;;5.38;1.58;;;17.60;99.90;;;;;;5074210;28;20079;-57
2023/08/31 11:07:15;;;;;;;4.43;1.35;;;17.50;99.90;;;;;;5070936;28;20086;-58
2023/08/31 11:09:42;;;;;;;6.05;1.30;;;17.30;99.90;;;;;;5071007;28;20043;-57
2023/08/31 11:12:08;;;;;;;7.35;1.30;;;17.10;99.90;;;;;;5067952;28;20032;-56
2023/08/31 11:14:34;;;;;;;13.57;2.05;;;16.90;99.90;;;;;;5073529;28;20096;-55
2023/08/31 11:17:00;;;;;;;6.40;1.30;;;16.40;99.90;;;;;;5069434;28;20064;-58
2023/08/31 11:19:28;;;;;;;5.38;1.02;;;15.70;99.90;;;;;;5057236;28;20057;-58
2023/08/31 11:21:54;;;;;;;4.78;1.02;;;14.80;99.90;;;;;;5063923;28;21749;-59
2023/08/31 11:24:23;;;;;;;6.32;1.35;;;14.40;99.90;;;;;;5065519;28;20137;-58
2023/08/31 11:26:53;;;;;;;3.72;1.08;;;14.20;99.90;;;;;;5064257;28;20041;-58
2023/08/31 11:29:19;;;;;;;7.43;1.05;;;14.10;99.90;;;;;;5060963;28;20386;-56
2023/08/31 11:31:45;;;;;;;4.78;1.25;;;14.10;99.90;;;;;;5062622;28;20037;-56
2023/08/31 11:34:14;;;;;;;4.18;1.20;;;14.20;99.90;;;;;;5073355;28;20043;-56
2023/08/31 11:36:46;;;;;;;3.20;0.80;;;14.30;99.90;;;;;;5066060;28;20052;-54
2023/08/31 11:39:12;;;;;;;5.32;1.13;;;14.40;99.90;;;;;;5062580;28;20490;-54
2023/08/31 11:41:41;;;;;;;5.68;1.35;;;14.50;99.90;;;;;;5059496;28;20398;-55
2023/08/31 11:44:12;;;;;;;3.83;1.20;;;14.70;99.90;;;;;;5059720;28;20040;-53
2023/08/31 11:46:39;;;;;;;7.88;1.60;;;14.80;99.90;;;;;;5059468;28;20084;-53
2023/08/31 11:49:06;;;;;;;5.03;1.50;;;14.90;99.90;;;;;;5058950;28;20052;-53
2023/08/31 11:51:37;;;;;;;4.82;1.58;;;15.10;99.90;;;;;;5059997;28;20041;-54
2023/08/31 11:54:04;;;;;;;8.40;1.60;;;15.30;99.90;;;;;;5073893;28;20048;-52
2023/08/31 11:56:48;;;;;;;6.57;1.50;;;15.50;99.90;;;;;;5068285;28;20040;-53
2023/08/31 11:59:18;;;;;;;6.00;1.63;;;15.70;99.90;;;;;;5059688;28;20045;-53
2023/08/31 12:01:46;;;;;;;7.45;1.60;;;15.80;99.90;;;;;;5059260;28;20047;-53
2023/08/31 12:04:20;;;;;;;6.75;1.80;;;16.10;99.90;;;;;;5059819;28;20060;-53
2023/08/31 12:06:53;;;;;;;6.93;1.67;;;16.20;99.90;;;;;;5068322;28;20078;-54
2023/08/31 12:09:21;;;;;;;7.28;1.60;;;16.30;99.90;;;;;;5058678;28;20080;-54
2023/08/31 12:11:54;;;;;;;14.60;2.20;;;16.20;99.90;;;;;;5072217;28;20051;-58
2023/08/31 12:14:19;;;;;;;10.63;2.05;;;15.80;99.90;;;;;;5079314;28;20048;-58
2023/08/31 12:16:45;;;;;;;8.77;1.48;;;15.30;99.90;;;;;;5078173;28;20059;-58
2023/08/31 12:19:11;;;;;;;7.15;1.42;;;14.90;99.90;;;;;;5072914;28;20124;-58
2023/08/31 12:21:36;;;;;;;6.07;1.30;;;14.80;99.90;;;;;;5079744;28;20082;-58
2023/08/31 12:24:05;;;;;;;4.95;1.60;;;14.70;99.90;;;;;;5078751;28;20129;-56
2023/08/31 12:26:31;;;;;;;5.45;1.30;;;14.70;99.90;;;;;;5076962;28;20029;-56
2023/08/31 12:28:56;;;;;;;7.13;1.50;;;14.70;99.90;;;;;;5067426;28;20509;-56
2023/08/31 12:31:25;;;;;;;6.78;1.60;;;14.80;99.90;;;;;;5061166;28;20044;-54
2023/08/31 12:33:51;;;;;;;5.70;1.40;;;14.80;99.90;;;;;;5065093;28;20912;-55
2023/08/31 12:36:16;;;;;;;6.03;1.60;;;14.90;99.90;;;;;;5065723;28;20037;-54
2023/08/31 12:38:42;;;;;;;4.88;1.75;;;15.00;99.90;;;;;;5067572;28;20047;-53
2023/08/31 12:41:08;;;;;;;7.68;1.70;;;15.20;99.90;;;;;;5071716;28;20053;-53
2023/08/31 12:43:35;;;;;;;5.05;1.80;;;15.30;99.90;;;;;;5081438;28;20041;-53
2023/08/31 12:46:01;;;;;;;7.10;1.90;;;15.50;99.90;;;;;;5081470;28;20036;-53
2023/08/31 12:48:27;;;;;;;9.00;1.92;;;15.70;99.90;;;;;;5080754;28;20106;-52